Time;durP1;ratioP1;P1;durP2;ratioP2;P2;SDS_P1;SDS_P2;PMS_P1;PMS_P2;Temp;Humidity;BMP_temperature;BMP_pressure;BME280_temperature;BME280_humidity;BME280_pressure;Samples;Min_cycle;Max_cycle;Signal;HPM_P1;HPM_P2
2021/05/22 00:02:13;;;;;;;7.68;4.03;;;;;;;13.15;63.98;100348.88;5046582;28;20063;-23
2021/05/22 00:04:38;;;;;;;5.47;4.00;;;;;;;12.81;64.99;100347.69;5046911;28;20025;-22
2021/05/22 00:07:04;;;;;;;5.43;4.18;;;;;;;13.31;62.46;100351.97;5046928;28;20460;-22
2021/05/22 00:09:30;;;;;;;6.18;3.70;;;;;;;13.39;62.29;100343.63;5046687;28;20572;-23
2021/05/22 00:11:55;;;;;;;5.78;3.70;;;;;;;13.19;63.32;100339.34;5046589;28;20048;-22
2021/05/22 00:14:21;;;;;;;7.18;3.55;;;;;;;12.72;64.91;100351.75;5046542;28;20029;-23
2021/05/22 00:16:46;;;;;;;8.98;3.60;;;;;;;12.31;66.75;100343.38;5046571;28;20037;-22
2021/05/22 00:19:12;;;;;;;8.60;4.07;;;;;;;12.49;67.06;100353.28;5046754;28;20033;-23
2021/05/22 00:21:37;;;;;;;6.43;3.72;;;;;;;12.34;66.76;100359.00;5048806;28;20025;-23
2021/05/22 00:24:03;;;;;;;4.97;3.55;;;;;;;11.99;68.37;100362.25;5050536;28;20459;-23
2021/05/22 00:26:29;;;;;;;5.05;3.80;;;;;;;11.84;69.25;100361.75;5050196;28;20025;-23
2021/05/22 00:28:54;;;;;;;5.40;3.90;;;;;;;11.89;69.16;100369.97;5050544;28;20029;-23
2021/05/22 00:31:19;;;;;;;5.95;3.70;;;;;;;12.05;68.39;100371.22;5050265;28;20029;-22
2021/05/22 00:33:45;;;;;;;5.53;3.70;;;;;;;12.42;66.49;100372.06;5050187;28;20040;-23
2021/05/22 00:36:10;;;;;;;6.03;3.75;;;;;;;11.88;67.28;100354.91;5050148;28;20397;-24
2021/05/22 00:38:36;;;;;;;5.78;3.38;;;;;;;11.71;68.15;100359.16;5050443;28;20041;-23
2021/05/22 00:41:01;;;;;;;6.25;3.40;;;;;;;11.19;69.42;100367.38;5050167;28;20033;-23
2021/05/22 00:43:27;;;;;;;6.93;4.03;;;;;;;10.77;70.57;100349.16;5049876;28;20124;-22
2021/05/22 00:45:54;;;;;;;6.18;3.88;;;;;;;10.79;70.50;100379.09;5049871;28;20029;-22
2021/05/22 00:48:20;;;;;;;5.40;3.53;;;;;;;11.52;67.09;100359.13;5048590;28;20044;-23
2021/05/22 00:50:46;;;;;;;5.97;3.92;;;;;;;11.46;66.26;100360.00;5049844;28;20044;-23
2021/05/22 00:53:12;;;;;;;6.75;3.97;;;;;;;11.14;67.32;100360.03;5049812;28;20040;-23
2021/05/22 00:55:37;;;;;;;7.38;4.50;;;;;;;11.42;66.30;100356.97;5049723;28;20033;-22
2021/05/22 00:58:03;;;;;;;8.35;4.50;;;;;;;11.95;64.82;100363.72;5049786;28;20470;-23
2021/05/22 01:00:52;;;;;;;5.63;4.20;;;;;;;12.09;64.80;100379.63;5049202;28;20029;-23
2021/05/22 01:03:24;;;;;;;7.55;4.50;;;;;;;11.85;65.60;100358.84;5049839;28;20064;-23
2021/05/22 01:05:49;;;;;;;6.40;4.22;;;;;;;12.06;64.76;100381.69;5049668;28;20082;-23
2021/05/22 01:08:19;;;;;;;8.13;4.15;;;;;;;12.30;63.16;100367.66;5049273;28;20029;-23
2021/05/22 01:10:47;;;;;;;5.97;4.07;;;;;;;12.19;63.59;100382.59;5049321;28;20029;-23
2021/05/22 01:13:13;;;;;;;5.63;3.53;;;;;;;11.62;65.97;100388.81;5048277;28;20044;-23
2021/05/22 01:15:39;;;;;;;4.93;3.78;;;;;;;11.11;67.59;100375.66;5048268;28;20417;-23
2021/05/22 01:18:05;;;;;;;5.68;4.20;;;;;;;11.68;66.75;100402.38;5031758;28;20124;-22
2021/05/22 01:20:45;;;;;;;6.95;3.88;;;;;;;11.41;66.50;100373.19;5047909;28;20032;-23
2021/05/22 01:23:20;;;;;;;6.85;3.53;;;;;;;11.84;65.90;100396.47;5048145;28;20037;-23
2021/05/22 01:25:46;;;;;;;7.93;4.18;;;;;;;12.22;64.35;100382.19;5047973;28;20112;-23
2021/05/22 01:28:11;;;;;;;9.13;4.30;;;;;;;12.15;64.79;100386.75;5047827;28;20039;-23
2021/05/22 01:30:37;;;;;;;6.30;3.60;;;;;;;11.95;65.43;100386.94;5049372;28;20040;-23
2021/05/22 01:33:03;;;;;;;6.70;4.10;;;;;;;12.06;64.09;100371.00;5048004;28;20033;-23
2021/05/22 01:35:29;;;;;;;8.18;4.50;;;;;;;11.73;66.21;100394.50;5049087;28;20017;-23
2021/05/22 01:37:54;;;;;;;5.35;4.20;;;;;;;11.96;65.67;100392.06;5049067;28;20130;-24
2021/05/22 01:40:20;;;;;;;6.22;4.50;;;;;;;11.40;67.43;100401.75;5048696;28;20025;-23
2021/05/22 01:42:45;;;;;;;6.32;4.10;;;;;;;11.42;67.59;100396.16;5049002;28;20041;-23
2021/05/22 01:45:35;;;;;;;5.80;3.95;;;;;;;11.33;68.03;100389.47;5049584;28;20863;-23
2021/05/22 01:48:02;;;;;;;6.13;3.90;;;;;;;10.98;68.56;100392.56;5047567;28;20045;-23
2021/05/22 01:50:29;;;;;;;6.20;3.70;;;;;;;10.92;68.74;100372.06;5030912;28;20032;-23
2021/05/22 01:52:54;;;;;;;5.03;3.42;;;;;;;11.07;67.64;100385.91;5047489;28;20063;-23
2021/05/22 01:55:20;;;;;;;4.85;3.25;;;;;;;10.23;69.62;100380.47;5047832;28;20895;-23
2021/05/22 01:57:45;;;;;;;4.45;3.22;;;;;;;9.98;69.99;100367.00;5047334;28;20072;-23
2021/05/22 02:00:12;;;;;;;5.47;3.40;;;;;;;10.64;68.82;100360.72;5048898;28;20083;-23
2021/05/22 02:02:53;;;;;;;6.72;3.65;;;;;;;11.19;66.56;100362.03;5048320;28;20108;-23
2021/05/22 02:05:19;;;;;;;6.55;4.15;;;;;;;11.63;64.74;100374.44;5032532;28;20056;-22
2021/05/22 02:07:45;;;;;;;5.60;3.58;;;;;;;11.01;66.45;100368.09;5030700;28;20032;-23
2021/05/22 02:10:10;;;;;;;5.60;3.80;;;;;;;11.21;65.75;100370.66;5046932;28;20029;-23
2021/05/22 02:12:36;;;;;;;8.55;4.43;;;;;;;11.19;67.03;100372.72;5047200;28;20025;-23
2021/05/22 02:15:01;;;;;;;8.98;3.45;;;;;;;11.25;65.24;100337.97;5047258;28;20032;-23
2021/05/22 02:17:27;;;;;;;6.60;4.00;;;;;;;11.68;65.73;100370.31;5030229;28;20032;-23
2021/05/22 02:19:52;;;;;;;8.88;3.55;;;;;;;11.56;66.39;100368.31;5048224;28;20102;-22
2021/05/22 02:22:22;;;;;;;4.10;2.58;;;;;;;11.77;64.76;100352.94;5030413;28;20036;-23
2021/05/22 02:24:51;;;;;;;4.18;2.50;;;;;;;11.79;64.16;100361.56;5048129;28;20111;-23
2021/05/22 02:27:17;;;;;;;10.93;3.00;;;;;;;10.97;67.31;100374.91;5048036;28;20491;-23
2021/05/22 02:29:43;;;;;;;5.22;2.58;;;;;;;10.88;67.38;100346.84;5048042;28;20516;-23
2021/05/22 02:32:09;;;;;;;4.15;2.40;;;;;;;11.21;65.17;100384.81;5046690;28;20044;-22
2021/05/22 02:34:49;;;;;;;4.38;2.53;;;;;;;10.75;66.12;100375.22;5030021;28;20025;-23
2021/05/22 02:37:16;;;;;;;6.57;2.67;;;;;;;10.96;65.03;100349.25;5031902;28;20841;-23
2021/05/22 02:39:41;;;;;;;6.13;2.63;;;;;;;11.11;65.55;100392.47;5046796;28;20025;-23
2021/05/22 02:42:07;;;;;;;5.90;2.67;;;;;;;10.41;67.80;100387.84;5030022;28;20558;-23
2021/05/22 02:44:32;;;;;;;10.32;2.90;;;;;;;10.42;68.00;100376.16;5029441;28;20029;-23
2021/05/22 02:46:58;;;;;;;7.22;2.75;;;;;;;10.91;65.72;100381.09;5046306;28;20037;-23
2021/05/22 02:49:25;;;;;;;3.70;2.45;;;;;;;10.74;66.95;100389.56;5029949;28;20482;-23
2021/05/22 02:51:51;;;;;;;4.53;2.67;;;;;;;10.35;68.50;100383.34;5046097;28;20049;-23
2021/05/22 02:54:17;;;;;;;5.18;2.78;;;;;;;10.79;67.29;100383.63;5046093;28;20036;-23
2021/05/22 02:56:43;;;;;;;6.47;3.17;;;;;;;11.43;64.65;100390.63;5046175;28;20029;-23
2021/05/22 02:59:09;;;;;;;5.20;2.83;;;;;;;11.13;65.56;100374.38;5046153;28;20047;-23
2021/05/22 03:01:34;;;;;;;11.32;4.15;;;;;;;10.38;68.08;100390.94;5029877;28;20029;-23
2021/05/22 03:04:00;;;;;;;10.05;3.42;;;;;;;10.83;66.11;100403.50;5046358;28;20032;-23
2021/05/22 03:06:25;;;;;;;5.43;3.28;;;;;;;11.11;65.28;100392.47;5029410;28;20044;-23
2021/05/22 03:08:51;;;;;;;8.05;3.20;;;;;;;11.45;64.88;100406.44;5046445;28;20041;-23
2021/05/22 03:11:18;;;;;;;5.97;3.20;;;;;;;11.17;65.82;100401.47;5047044;28;20037;-23
2021/05/22 03:13:43;;;;;;;6.03;3.30;;;;;;;11.08;65.72;100402.78;5047187;28;20128;-23
2021/05/22 03:16:09;;;;;;;6.13;3.95;;;;;;;11.24;64.15;100392.41;5046189;28;20108;-23
2021/05/22 03:18:34;;;;;;;7.63;3.90;;;;;;;11.46;64.43;100411.56;5046928;28;20029;-23
2021/05/22 03:21:00;;;;;;;5.82;3.20;;;;;;;11.38;63.46;100409.16;5047513;28;20600;-23
2021/05/22 03:23:25;;;;;;;9.32;3.20;;;;;;;10.80;66.22;100417.25;5047314;28;20469;-22
2021/05/22 03:25:51;;;;;;;6.38;3.25;;;;;;;10.04;68.32;100413.31;5047217;28;20540;-23
2021/05/22 03:28:16;;;;;;;5.85;3.33;;;;;;;10.57;67.08;100421.25;5046661;28;20037;-23
2021/05/22 03:30:42;;;;;;;6.13;2.83;;;;;;;10.37;67.27;100418.63;5047098;28;20075;-23
2021/05/22 03:33:07;;;;;;;6.65;2.78;;;;;;;10.48;66.73;100417.16;5047123;28;20029;-23
2021/05/22 03:35:33;;;;;;;4.90;2.88;;;;;;;10.42;66.75;100421.50;5047247;28;20079;-23
2021/05/22 03:37:58;;;;;;;4.97;3.10;;;;;;;10.16;68.38;100418.84;5046948;28;20485;-23
2021/05/22 03:40:24;;;;;;;5.80;3.03;;;;;;;9.74;70.35;100428.91;5047090;28;20033;-23
2021/05/22 03:42:49;;;;;;;4.05;2.80;;;;;;;9.82;70.27;100410.06;5045556;28;20036;-23
2021/05/22 03:45:15;;;;;;;5.22;3.00;;;;;;;9.92;70.70;100422.97;5047007;28;20044;-23
2021/05/22 03:47:40;;;;;;;3.88;2.88;;;;;;;9.96;70.54;100427.69;5047222;28;20405;-23
2021/05/22 03:50:06;;;;;;;6.03;3.13;;;;;;;10.19;69.95;100429.09;5047028;28;20087;-23
2021/05/22 03:52:32;;;;;;;3.92;2.95;;;;;;;10.72;69.05;100430.84;5046450;28;20052;-23
2021/05/22 03:54:57;;;;;;;6.45;3.50;;;;;;;11.49;66.84;100436.22;5047091;28;20037;-23
2021/05/22 03:57:23;;;;;;;7.18;3.30;;;;;;;11.49;67.29;100441.56;5050681;28;20040;-23
2021/05/22 03:59:48;;;;;;;6.05;3.55;;;;;;;11.43;67.37;100443.22;5050820;28;20539;-22
2021/05/22 04:02:14;;;;;;;7.93;3.55;;;;;;;11.84;66.57;100444.56;5050851;28;20040;-23
2021/05/22 04:04:39;;;;;;;4.90;3.03;;;;;;;11.74;66.56;100437.03;5050847;28;20028;-23
2021/05/22 04:07:05;;;;;;;5.07;3.20;;;;;;;11.57;67.70;100438.63;5050715;28;20029;-23
2021/05/22 04:09:30;;;;;;;6.47;3.35;;;;;;;11.34;68.70;100439.16;5050658;28;20025;-23
2021/05/22 04:11:56;;;;;;;9.68;3.50;;;;;;;11.35;68.44;100440.81;5050459;28;20029;-23
2021/05/22 04:14:21;;;;;;;7.10;3.22;;;;;;;11.10;69.42;100446.09;5050267;28;20044;-23
2021/05/22 04:16:47;;;;;;;6.65;3.60;;;;;;;11.56;68.44;100442.31;5050613;28;20037;-23
2021/05/22 04:19:12;;;;;;;5.75;3.28;;;;;;;12.06;66.78;100437.84;5050735;28;20535;-23
2021/05/22 04:21:38;;;;;;;5.90;3.90;;;;;;;11.88;68.74;100445.78;5050716;28;20029;-23
2021/05/22 04:24:03;;;;;;;7.10;4.00;;;;;;;12.26;67.77;100443.00;5050309;28;20032;-27
2021/05/22 04:26:29;;;;;;;6.68;3.88;;;;;;;12.61;66.05;100433.59;5050095;28;20405;-23
2021/05/22 04:28:54;;;;;;;6.15;4.32;;;;;;;12.74;66.49;100430.75;5050096;28;20036;-23
2021/05/22 04:31:20;;;;;;;9.57;5.28;;;;;;;12.66;65.53;100423.84;5050845;28;20820;-22
2021/05/22 04:33:45;;;;;;;7.13;4.43;;;;;;;13.15;64.31;100429.22;5050306;28;20044;-23
2021/05/22 04:36:11;;;;;;;6.28;4.57;;;;;;;13.09;64.53;100408.69;5049905;28;20040;-23
2021/05/22 04:38:36;;;;;;;5.95;4.32;;;;;;;12.81;65.27;100403.91;5050209;28;20029;-23
2021/05/22 04:41:02;;;;;;;6.50;4.93;;;;;;;12.76;65.96;100423.31;5050077;28;20085;-23
2021/05/22 04:43:27;;;;;;;8.25;4.78;;;;;;;13.30;64.81;100412.78;5050018;28;20515;-23
2021/05/22 04:45:53;;;;;;;8.88;5.28;;;;;;;13.48;65.11;100425.25;5050207;28;20040;-23
2021/05/22 04:48:18;;;;;;;7.82;5.50;;;;;;;13.49;65.14;100429.59;5049897;28;20037;-23
2021/05/22 04:50:44;;;;;;;9.40;5.55;;;;;;;13.72;64.42;100434.19;5049769;28;20401;-23
2021/05/22 04:53:09;;;;;;;8.55;5.20;;;;;;;13.95;63.63;100440.63;5049915;28;20029;-23
2021/05/22 04:55:35;;;;;;;9.30;5.72;;;;;;;14.13;62.83;100439.69;5049962;28;20028;-23
2021/05/22 04:58:00;;;;;;;8.98;5.63;;;;;;;14.22;62.65;100427.56;5049816;28;20025;-23
2021/05/22 05:00:26;;;;;;;9.52;6.28;;;;;;;14.28;62.06;100432.00;5048304;28;20040;-23
2021/05/22 05:02:54;;;;;;;8.95;5.85;;;;;;;14.40;62.04;100445.41;5050035;28;20056;-23
2021/05/22 05:05:19;;;;;;;9.32;5.82;;;;;;;14.41;61.71;100453.22;5049734;28;20036;-24
2021/05/22 05:07:45;;;;;;;10.15;6.10;;;;;;;14.31;61.36;100447.63;5049689;28;20377;-23
2021/05/22 05:10:10;;;;;;;11.02;6.53;;;;;;;14.38;61.28;100437.56;5048099;28;20083;-23
2021/05/22 05:12:36;;;;;;;10.43;6.50;;;;;;;14.81;61.09;100457.88;5049485;28;20405;-23
2021/05/22 05:15:03;;;;;;;10.90;6.50;;;;;;;14.72;61.09;100450.41;5049641;28;20478;-22
2021/05/22 05:17:28;;;;;;;9.90;6.13;;;;;;;14.97;61.27;100460.84;5049582;28;20025;-23
2021/05/22 05:19:54;;;;;;;13.90;6.78;;;;;;;15.28;61.11;100467.63;5049642;28;20482;-23
2021/05/22 05:22:19;;;;;;;9.23;6.43;;;;;;;14.92;62.19;100482.25;5049148;28;20029;-23
2021/05/22 05:24:45;;;;;;;9.93;6.90;;;;;;;15.33;61.81;100480.38;5049213;28;20036;-22
2021/05/22 05:27:12;;;;;;;8.68;6.78;;;;;;;15.26;61.36;100473.25;5049247;28;20477;-23
2021/05/22 05:29:39;;;;;;;10.18;6.68;;;;;;;15.42;61.53;100493.16;5049130;28;20119;-23
2021/05/22 05:32:07;;;;;;;9.80;7.00;;;;;;;15.41;60.67;100479.97;5049314;28;20029;-22
2021/05/22 05:34:33;;;;;;;10.80;7.40;;;;;;;15.30;61.92;100496.94;5049083;28;20056;-23
2021/05/22 05:36:58;;;;;;;13.02;7.57;;;;;;;15.07;62.45;100495.97;5049286;28;20474;-22
2021/05/22 05:39:23;;;;;;;9.75;6.75;;;;;;;15.17;61.53;100501.53;5048846;28;20033;-23
2021/05/22 05:41:49;;;;;;;9.63;7.15;;;;;;;15.01;62.99;100513.03;5049056;28;20060;-23
2021/05/22 05:44:14;;;;;;;9.82;7.05;;;;;;;15.27;62.13;100509.81;5049149;28;20025;-23
2021/05/22 05:46:40;;;;;;;9.32;6.60;;;;;;;15.49;61.78;100506.47;5047795;28;20029;-23
2021/05/22 05:49:05;;;;;;;10.50;7.18;;;;;;;15.48;61.51;100515.56;5048864;28;20029;-23
2021/05/22 05:51:32;;;;;;;10.27;7.05;;;;;;;15.32;62.28;100489.47;5048823;28;20059;-23
2021/05/22 05:53:57;;;;;;;9.57;6.93;;;;;;;15.65;61.00;100516.44;5048948;28;20033;-23
2021/05/22 05:56:23;;;;;;;9.95;6.47;;;;;;;15.49;60.62;100511.84;5048512;28;20041;-23
2021/05/22 05:58:48;;;;;;;9.00;7.25;;;;;;;15.90;60.19;100511.78;5048832;28;20095;-23
2021/05/22 06:01:14;;;;;;;10.25;6.03;;;;;;;16.25;59.51;100506.16;5048596;28;20098;-23
2021/05/22 06:03:40;;;;;;;9.70;6.72;;;;;;;16.52;58.31;100503.59;5048602;28;20059;-23
2021/05/22 06:06:05;;;;;;;7.65;5.43;;;;;;;16.20;58.03;100516.81;5048502;28;20147;-23
2021/05/22 06:08:31;;;;;;;7.80;5.40;;;;;;;16.32;57.49;100514.88;5048020;28;20792;-23
2021/05/22 06:10:58;;;;;;;7.15;5.55;;;;;;;16.39;58.43;100503.94;5048535;28;20041;-23
2021/05/22 06:13:34;;;;;;;10.57;5.75;;;;;;;16.59;57.13;100500.72;5048431;28;20044;-24
2021/05/22 06:16:17;;;;;;;8.00;4.88;;;;;;;16.55;56.24;100496.88;5047394;28;20040;-23
2021/05/22 06:18:42;;;;;;;7.95;5.28;;;;;;;16.69;56.46;100492.78;5047552;28;20032;-22
2021/05/22 06:21:08;;;;;;;8.80;5.65;;;;;;;16.55;57.64;100488.81;5048172;28;20037;-22
2021/05/22 06:23:34;;;;;;;12.98;5.47;;;;;;;16.82;56.42;100487.06;5048120;28;20409;-22
2021/05/22 06:25:59;;;;;;;8.02;5.45;;;;;;;17.24;56.23;100491.06;5048032;28;20036;-22
2021/05/22 06:28:25;;;;;;;27.95;8.48;;;;;;;17.48;56.35;100494.28;5047838;28;20032;-23
2021/05/22 06:30:51;;;;;;;6.50;5.00;;;;;;;17.16;54.47;100503.13;5048070;28;20029;-22
2021/05/22 06:33:16;;;;;;;7.75;5.45;;;;;;;17.18;56.01;100497.47;5047980;28;20028;-22
2021/05/22 06:35:42;;;;;;;9.93;5.47;;;;;;;17.36;54.58;100493.63;5048149;28;20429;-22
2021/05/22 06:38:08;;;;;;;7.70;5.18;;;;;;;17.22;55.41;100491.34;5048000;28;20029;-22
2021/05/22 06:40:34;;;;;;;9.20;5.68;;;;;;;17.60;54.85;100488.75;5047747;28;20489;-22
2021/05/22 06:42:59;;;;;;;7.93;5.68;;;;;;;17.93;54.18;100487.72;5047704;28;20120;-23
2021/05/22 06:45:27;;;;;;;14.95;5.97;;;;;;;17.78;54.26;100490.25;5047924;28;20036;-22
2021/05/22 06:47:52;;;;;;;7.97;5.63;;;;;;;17.65;54.45;100489.63;5047707;28;20031;-23
2021/05/22 06:50:18;;;;;;;64.88;9.30;;;;;;;17.88;54.11;100471.50;5047726;28;20729;-22
2021/05/22 06:52:44;;;;;;;7.45;5.53;;;;;;;17.86;53.70;100489.81;5047180;28;20053;-22
2021/05/22 06:55:09;;;;;;;9.15;5.45;;;;;;;17.92;52.97;100479.88;5047842;28;20071;-22
2021/05/22 06:57:35;;;;;;;8.38;5.10;;;;;;;18.09;53.03;100504.03;5047718;28;20112;-22
2021/05/22 07:00:00;;;;;;;18.67;6.80;;;;;;;18.05;55.01;100496.44;5047558;28;20502;-22
2021/05/22 07:02:26;;;;;;;12.35;5.60;;;;;;;17.99;53.64;100500.16;5047136;28;20033;-22
2021/05/22 07:04:51;;;;;;;6.93;5.22;;;;;;;17.79;54.36;100483.78;5047500;28;20040;-23
2021/05/22 07:07:17;;;;;;;7.45;4.93;;;;;;;17.95;55.39;100487.47;5047428;28;20041;-22
2021/05/22 07:09:42;;;;;;;6.63;4.95;;;;;;;18.44;53.27;100479.97;5047273;28;20068;-22
2021/05/22 07:12:10;;;;;;;6.35;4.88;;;;;;;18.30;54.19;100489.59;5047363;28;20078;-22
2021/05/22 07:14:35;;;;;;;6.13;4.50;;;;;;;18.48;53.23;100475.66;5047297;28;20025;-23
2021/05/22 07:17:01;;;;;;;8.50;4.72;;;;;;;18.74;51.41;100486.63;5047467;28;20430;-22
2021/05/22 07:19:27;;;;;;;5.63;3.92;;;;;;;18.71;51.02;100494.44;5047332;28;20930;-23
2021/05/22 07:21:53;;;;;;;5.90;4.00;;;;;;;18.57;50.92;100484.13;5047126;28;20029;-22
2021/05/22 07:24:19;;;;;;;5.95;4.20;;;;;;;18.52;50.01;100464.38;5047064;28;20151;-22
2021/05/22 07:26:45;;;;;;;5.55;3.60;;;;;;;18.95;49.95;100484.03;5047061;28;20063;-23
2021/05/22 07:29:11;;;;;;;6.65;4.30;;;;;;;19.33;50.55;100482.00;5047297;28;20401;-22
2021/05/22 07:31:40;;;;;;;6.53;4.10;;;;;;;19.37;48.92;100474.97;5047185;28;20863;-22
2021/05/22 07:34:05;;;;;;;6.03;3.90;;;;;;;19.54;48.74;100478.25;5046783;28;20036;-23
2021/05/22 07:36:31;;;;;;;5.78;3.97;;;;;;;19.53;48.20;100467.69;5046949;28;20477;-22
2021/05/22 07:38:56;;;;;;;6.15;3.47;;;;;;;19.94;46.65;100463.16;5047264;28;20817;-22
2021/05/22 07:41:22;;;;;;;6.57;3.70;;;;;;;20.34;47.84;100471.50;5047161;28;20040;-22
2021/05/22 07:43:47;;;;;;;6.32;4.03;;;;;;;20.54;47.16;100470.66;5047147;28;20083;-22
2021/05/22 07:46:13;;;;;;;5.00;3.83;;;;;;;20.91;45.64;100472.97;5046726;28;20037;-23
2021/05/22 07:48:38;;;;;;;7.72;4.00;;;;;;;20.94;45.94;100469.69;5046817;28;20037;-24
2021/05/22 07:51:04;;;;;;;6.25;3.88;;;;;;;20.96;46.51;100464.00;5046803;28;20052;-22
2021/05/22 07:53:30;;;;;;;6.07;3.58;;;;;;;21.30;45.25;100466.00;5047129;28;20033;-22
2021/05/22 07:55:55;;;;;;;5.88;3.60;;;;;;;20.99;43.97;100471.59;5046911;28;20039;-22
2021/05/22 07:58:21;;;;;;;7.05;3.85;;;;;;;21.24;45.20;100479.56;5046721;28;20489;-23
2021/05/22 08:00:46;;;;;;;5.65;4.32;;;;;;;21.33;45.69;100468.13;5046679;28;20064;-22
2021/05/22 08:03:12;;;;;;;6.40;3.40;;;;;;;21.43;42.55;100465.38;5046912;28;20025;-23
2021/05/22 08:05:37;;;;;;;5.05;3.58;;;;;;;21.79;43.74;100476.00;5046646;28;20029;-22
2021/05/22 08:08:03;;;;;;;5.25;3.72;;;;;;;21.77;41.17;100470.03;5046793;28;20090;-23
2021/05/22 08:10:29;;;;;;;5.95;3.45;;;;;;;21.84;43.35;100478.66;5046496;28;20396;-23
2021/05/22 08:12:54;;;;;;;7.45;3.20;;;;;;;21.94;41.49;100475.84;5046942;28;20473;-22
2021/05/22 08:15:20;;;;;;;4.30;3.00;;;;;;;21.76;42.22;100473.84;5046956;28;20041;-22
2021/05/22 08:17:45;;;;;;;2.47;2.10;;;;;;;21.62;39.27;100470.97;5047126;28;20056;-22
2021/05/22 08:20:11;;;;;;;4.68;2.90;;;;;;;22.01;39.53;100484.50;5046433;28;20056;-22
2021/05/22 08:22:37;;;;;;;8.00;3.20;;;;;;;22.18;40.58;100485.97;5046740;28;20028;-22
2021/05/22 08:25:05;;;;;;;4.90;3.30;;;;;;;22.04;42.10;100464.91;5046674;28;20037;-22
2021/05/22 08:27:30;;;;;;;5.95;3.00;;;;;;;22.85;39.67;100472.50;5046612;28;20028;-22
2021/05/22 08:29:56;;;;;;;7.32;3.20;;;;;;;23.08;39.33;100473.59;5046542;28;20033;-22
2021/05/22 08:32:22;;;;;;;4.90;3.38;;;;;;;22.27;41.10;100473.41;5044876;28;20029;-22
2021/05/22 08:34:47;;;;;;;5.85;3.45;;;;;;;22.05;42.50;100461.09;5046599;28;20025;-23
2021/05/22 08:37:13;;;;;;;5.05;3.70;;;;;;;22.74;39.67;100444.63;5046668;28;20532;-22
2021/05/22 08:39:43;;;;;;;4.85;3.08;;;;;;;23.16;38.66;100456.59;5046492;28;20032;-22
2021/05/22 08:42:11;;;;;;;4.93;3.28;;;;;;;22.87;37.63;100449.34;5048022;28;20056;-22
2021/05/22 08:44:39;;;;;;;5.07;2.85;;;;;;;23.36;37.92;100441.09;5050244;28;20063;-22
2021/05/22 08:47:04;;;;;;;5.53;2.88;;;;;;;23.26;37.06;100445.59;5048578;28;20748;-22
2021/05/22 08:49:40;;;;;;;3.80;2.80;;;;;;;23.22;38.99;100430.94;5048634;28;20033;-22
2021/05/22 08:52:07;;;;;;;4.28;2.92;;;;;;;23.84;37.96;100438.16;5048824;28;20092;-22
2021/05/22 08:54:32;;;;;;;5.90;2.95;;;;;;;24.06;36.80;100435.59;5049994;28;20041;-22
2021/05/22 08:56:58;;;;;;;3.65;2.60;;;;;;;23.65;37.01;100425.38;5050062;28;20044;-22
2021/05/22 08:59:25;;;;;;;3.97;2.80;;;;;;;23.49;36.18;100415.84;5049783;28;20083;-22
2021/05/22 09:01:50;;;;;;;6.57;2.90;;;;;;;23.81;39.16;100422.44;5049688;28;20033;-22
2021/05/22 09:04:15;;;;;;;4.68;2.60;;;;;;;24.06;37.67;100413.78;5049581;28;20044;-22
2021/05/22 09:07:01;;;;;;;4.45;2.88;;;;;;;23.92;36.93;100426.59;5048540;28;20032;-22
2021/05/22 09:09:43;;;;;;;3.97;2.70;;;;;;;23.98;37.37;100411.75;5049585;28;20086;-22
2021/05/22 09:12:09;;;;;;;4.85;2.75;;;;;;;24.27;35.32;100424.31;5049457;28;20021;-22
2021/05/22 09:14:43;;;;;;;3.58;2.55;;;;;;;24.45;34.65;100431.59;5049668;28;20029;-22
2021/05/22 09:17:09;;;;;;;4.45;2.38;;;;;;;24.18;34.80;100415.25;5049575;28;20037;-22
2021/05/22 09:19:35;;;;;;;3.97;2.30;;;;;;;24.10;35.40;100430.34;5049347;28;20503;-22
2021/05/22 09:22:20;;;;;;;3.53;2.40;;;;;;;24.03;35.07;100414.41;5049163;28;20021;-22
2021/05/22 09:25:05;;;;;;;3.83;2.67;;;;;;;23.90;35.19;100426.06;5049399;28;20087;-22
2021/05/22 09:27:35;;;;;;;3.85;2.35;;;;;;;24.12;33.65;100419.16;5049242;28;20052;-22
2021/05/22 09:30:10;;;;;;;4.13;2.50;;;;;;;24.33;33.67;100405.94;5049483;28;20481;-22
2021/05/22 09:32:36;;;;;;;4.03;2.90;;;;;;;23.85;34.57;100409.84;5049073;28;20115;-22
2021/05/22 09:35:03;;;;;;;5.05;2.03;;;;;;;23.75;34.66;100418.16;5048947;28;20076;-22
2021/05/22 09:37:28;;;;;;;2.67;2.08;;;;;;;24.12;34.15;100409.06;5049471;28;20031;-22
2021/05/22 09:39:54;;;;;;;5.32;2.20;;;;;;;24.73;33.13;100423.44;5048943;28;20041;-22
2021/05/22 09:42:26;;;;;;;6.43;2.63;;;;;;;24.48;34.14;100402.94;5048851;28;20029;-22
2021/05/22 09:44:52;;;;;;;3.80;2.22;;;;;;;24.82;34.54;100416.13;5048966;28;20039;-22
2021/05/22 09:47:18;;;;;;;2.72;2.03;;;;;;;24.94;31.98;100433.91;5048773;28;20107;-22
2021/05/22 09:49:43;;;;;;;6.10;2.60;;;;;;;24.26;33.70;100412.59;5048645;28;20036;-22
2021/05/22 09:52:12;;;;;;;5.90;2.58;;;;;;;24.27;34.83;100424.31;5048709;28;20041;-22
2021/05/22 09:54:44;;;;;;;2.22;1.90;;;;;;;24.18;33.42;100420.69;5047753;28;20029;-22
2021/05/22 09:57:11;;;;;;;3.08;1.85;;;;;;;23.96;34.99;100411.25;5048850;28;20044;-22
2021/05/22 09:59:36;;;;;;;6.95;2.28;;;;;;;24.24;35.84;100406.66;5048546;28;20054;-22
2021/05/22 10:02:02;;;;;;;4.55;2.40;;;;;;;24.33;36.76;100390.41;5047368;28;20501;-22
2021/05/22 10:04:28;;;;;;;5.70;2.50;;;;;;;24.78;33.75;100390.56;5047110;28;20067;-22
2021/05/22 10:06:54;;;;;;;3.58;2.10;;;;;;;25.47;33.12;100375.91;5048504;28;20484;-22
2021/05/22 10:09:20;;;;;;;4.35;2.42;;;;;;;25.63;34.06;100374.41;5048470;28;20075;-22
2021/05/22 10:12:04;;;;;;;4.57;2.35;;;;;;;25.67;30.61;100363.69;5048265;28;20394;-22
2021/05/22 10:14:38;;;;;;;5.22;2.47;;;;;;;26.04;34.39;100350.69;5047962;28;20618;-22
2021/05/22 10:17:04;;;;;;;3.65;2.17;;;;;;;26.10;29.21;100365.03;5048549;28;20106;-22
2021/05/22 10:19:31;;;;;;;3.50;2.05;;;;;;;25.23;31.18;100349.75;5046939;28;20025;-22
2021/05/22 10:21:57;;;;;;;3.45;2.00;;;;;;;24.58;34.39;100347.38;5048230;28;20033;-22
2021/05/22 10:24:23;;;;;;;4.57;2.10;;;;;;;25.34;33.29;100350.31;5048160;28;20033;-22
2021/05/22 10:26:49;;;;;;;2.92;2.03;;;;;;;25.52;32.63;100350.41;5048001;28;20079;-22
2021/05/22 10:29:14;;;;;;;2.50;2.10;;;;;;;25.32;31.14;100327.19;5030094;28;20037;-22
2021/05/22 10:31:40;;;;;;;2.33;1.75;;;;;;;25.41;32.21;100336.22;5030219;28;20033;-22
2021/05/22 10:34:13;;;;;;;5.82;1.63;;;;;;;25.37;31.98;100346.94;5046709;28;20712;-22
2021/05/22 10:36:55;;;;;;;3.50;1.67;;;;;;;25.64;30.22;100348.72;5014178;28;20767;-22
2021/05/22 10:39:43;;;;;;;1.90;1.50;;;;;;;25.97;29.08;100348.44;5047724;28;20033;-22
2021/05/22 10:42:21;;;;;;;2.35;1.67;;;;;;;26.35;30.44;100347.88;5048154;28;20563;-22
2021/05/22 10:44:46;;;;;;;;;;;;;;;27.02;30.17;100337.69;5048114;28;20032;-22
2021/05/22 10:47:16;;;;;;;2.88;1.55;;;;;;;27.60;25.70;100325.38;5047683;28;20522;-22
2021/05/22 10:49:57;;;;;;;4.25;1.88;;;;;;;27.62;27.06;100331.34;5047939;28;20084;-22
2021/05/22 10:52:24;;;;;;;3.38;1.60;;;;;;;26.98;28.05;100326.56;5047335;28;20048;-22
2021/05/22 10:55:12;;;;;;;1.88;1.48;;;;;;;27.47;27.37;100315.41;5046376;28;20485;-22
2021/05/22 10:57:46;;;;;;;;;;;;;;;27.21;27.12;100316.22;5048069;28;20037;-21
2021/05/22 11:00:17;;;;;;;1.73;1.60;;;;;;;27.48;27.43;100308.78;5047518;28;19916;-22
2021/05/22 11:02:47;;;;;;;2.83;1.58;;;;;;;27.69;25.34;100295.22;5047351;28;20056;-22
2021/05/22 11:05:22;;;;;;;2.63;1.58;;;;;;;27.67;27.30;100304.91;5047436;28;20108;-22
2021/05/22 11:08:02;;;;;;;1.92;1.55;;;;;;;27.45;28.53;100295.78;5047509;28;20029;-22
2021/05/22 11:10:38;;;;;;;1.77;1.50;;;;;;;27.22;26.72;100298.69;5046099;28;20110;-23
2021/05/22 11:13:04;;;;;;;1.65;1.45;;;;;;;27.53;26.72;100292.19;5047132;28;20021;-21
2021/05/22 11:15:47;;;;;;;2.97;1.60;;;;;;;27.98;24.47;100302.66;5047696;28;20501;-22
2021/05/22 11:18:16;;;;;;;2.00;1.58;;;;;;;28.08;25.65;100281.50;5047165;28;20040;-22
2021/05/22 11:20:44;;;;;;;3.22;1.48;;;;;;;27.28;27.58;100285.69;5046134;28;20086;-22
2021/05/22 11:23:09;;;;;;;2.30;1.67;;;;;;;27.36;26.45;100286.75;5047156;28;20021;-22
2021/05/22 11:25:55;;;;;;;2.90;1.60;;;;;;;28.15;26.68;100292.75;5047240;28;20570;-22